Time;durP1;ratioP1;P1;durP2;ratioP2;P2;SDS_P1;SDS_P2;PMS_P1;PMS_P2;Temp;Humidity;BMP_temperature;BMP_pressure;BME280_temperature;BME280_humidity;BME280_pressure;Samples;Min_cycle;Max_cycle;Signal;HPM_P1;HPM_P2
2022/04/24 00:00:21;;;;;;;3.25;1.50;;;19.30;54.80;;;;;;5028474;28;20220;-56
2022/04/24 00:02:52;;;;;;;3.35;1.30;;;19.30;54.70;;;;;;5028981;28;20247;-56
2022/04/24 00:05:22;;;;;;;4.03;1.48;;;19.30;54.70;;;;;;5028871;28;20212;-56
2022/04/24 00:07:53;;;;;;;2.30;1.40;;;19.30;54.70;;;;;;5028528;28;20245;-56
2022/04/24 00:10:25;;;;;;;3.50;1.73;;;19.40;55.30;;;;;;5029230;28;20235;-56
2022/04/24 00:12:56;;;;;;;4.22;1.50;;;19.40;54.70;;;;;;5028739;28;20204;-56
2022/04/24 00:15:27;;;;;;;3.55;1.50;;;19.40;54.70;;;;;;5028249;28;20284;-55
2022/04/24 00:17:57;;;;;;;3.22;1.35;;;19.40;54.70;;;;;;5027733;28;20238;-56
2022/04/24 00:20:28;;;;;;;3.55;1.92;;;19.40;54.70;;;;;;5028569;28;20324;-56
2022/04/24 00:22:58;;;;;;;4.50;1.52;;;19.40;54.60;;;;;;5029166;28;20717;-55
2022/04/24 00:25:31;;;;;;;3.58;1.48;;;19.40;54.60;;;;;;5029052;28;21485;-57
2022/04/24 00:30:36;;;;;;;4.25;1.50;;;19.40;54.70;;;;;;4967097;28;20661;-58
2022/04/24 00:33:07;;;;;;;3.67;1.33;;;19.40;54.70;;;;;;4967732;28;20229;-58
2022/04/24 00:35:37;;;;;;;2.83;1.40;;;19.40;54.70;;;;;;4968120;28;20724;-58
2022/04/24 00:38:08;;;;;;;3.83;1.50;;;19.40;54.80;;;;;;4969622;28;20190;-58
2022/04/24 00:40:40;;;;;;;2.72;1.50;;;19.40;54.70;;;;;;4969839;28;20226;-59
2022/04/24 00:43:11;;;;;;;2.60;1.45;;;19.40;54.70;;;;;;4966314;28;20229;-58
2022/04/24 00:45:41;;;;;;;2.42;1.30;;;19.40;54.70;;;;;;4969887;28;20288;-58
2022/04/24 00:48:12;;;;;;;3.65;1.65;;;19.40;54.70;;;;;;4968833;28;20202;-58
2022/04/24 00:50:43;;;;;;;2.65;1.48;;;19.40;54.60;;;;;;4969497;28;20253;-58
2022/04/24 00:53:14;;;;;;;3.00;1.27;;;19.40;54.60;;;;;;4970192;28;20559;-58
2022/04/24 00:55:47;;;;;;;4.50;1.20;;;19.40;54.60;;;;;;4969363;28;20299;-58
2022/04/24 00:58:19;;;;;;;2.72;1.25;;;19.40;54.60;;;;;;4968828;28;20717;-58
2022/04/24 01:00:49;;;;;;;3.80;1.58;;;19.40;54.60;;;;;;4969966;28;20328;-58
2022/04/24 01:03:20;;;;;;;4.95;1.58;;;19.40;54.60;;;;;;4969241;28;20237;-58
2022/04/24 01:05:50;;;;;;;3.20;1.40;;;19.40;54.60;;;;;;4968670;28;20276;-58
2022/04/24 01:08:21;;;;;;;2.63;1.38;;;19.40;54.60;;;;;;4970081;28;20194;-58
2022/04/24 01:10:53;;;;;;;2.65;1.38;;;19.40;54.60;;;;;;4968683;28;20202;-58
2022/04/24 01:13:24;;;;;;;2.67;1.48;;;19.40;54.50;;;;;;4968722;28;20190;-58
2022/04/24 01:15:58;;;;;;;3.72;1.65;;;19.40;54.50;;;;;;4968326;28;20761;-57
2022/04/24 01:18:29;;;;;;;3.78;1.42;;;19.40;54.50;;;;;;4968373;28;20193;-58
2022/04/24 01:21:10;;;;;;;2.60;1.20;;;19.40;54.40;;;;;;4968084;28;20261;-58
2022/04/24 01:23:40;;;;;;;4.70;1.75;;;19.40;54.50;;;;;;4967210;28;20300;-58
2022/04/24 01:26:12;;;;;;;3.78;2.08;;;19.40;54.50;;;;;;4964536;28;20690;-58
2022/04/24 01:28:43;;;;;;;3.78;1.80;;;19.50;54.50;;;;;;4999257;22;20227;-58
2022/04/24 01:31:13;;;;;;;3.58;1.60;;;19.50;54.50;;;;;;5048039;28;20195;-58
2022/04/24 01:33:45;;;;;;;6.03;2.00;;;19.50;54.50;;;;;;5047169;28;20235;-58
2022/04/24 01:36:17;;;;;;;4.32;2.30;;;19.50;54.50;;;;;;5059265;28;20226;-57
2022/04/24 01:38:48;;;;;;;3.45;2.05;;;19.50;54.50;;;;;;5066755;28;20199;-46
2022/04/24 01:41:18;;;;;;;4.25;2.33;;;19.40;54.40;;;;;;5068742;28;20276;-56
2022/04/24 01:43:49;;;;;;;6.07;3.00;;;19.50;54.80;;;;;;5068243;28;20256;-53
2022/04/24 01:46:20;;;;;;;5.00;2.75;;;19.50;55.80;;;;;;5068648;28;20225;-59
2022/04/24 01:48:50;;;;;;;6.53;2.90;;;19.50;55.50;;;;;;5068572;28;20230;-54
2022/04/24 01:51:23;;;;;;;5.05;2.60;;;19.50;55.50;;;;;;5068687;28;20206;-53
2022/04/24 01:53:53;;;;;;;6.07;2.60;;;19.50;55.50;;;;;;5068507;28;20245;-51
2022/04/24 01:56:24;;;;;;;5.40;2.55;;;19.50;55.40;;;;;;5068836;28;20246;-53
2022/04/24 01:58:55;;;;;;;5.50;2.88;;;19.60;55.40;;;;;;5063199;28;20225;-58
2022/04/24 02:01:25;;;;;;;8.07;3.55;;;19.60;55.30;;;;;;5070120;28;20226;-59
2022/04/24 02:03:56;;;;;;;6.40;3.50;;;19.60;55.30;;;;;;5071955;28;20252;-54
2022/04/24 02:06:28;;;;;;;4.60;3.17;;;19.60;55.30;;;;;;5072374;28;20280;-57
2022/04/24 02:08:58;;;;;;;5.60;3.33;;;19.60;55.30;;;;;;5072353;28;20191;-57
2022/04/24 02:11:29;;;;;;;5.88;3.72;;;19.60;55.30;;;;;;5072221;28;20230;-60
2022/04/24 02:14:00;;;;;;;8.18;3.75;;;19.60;55.30;;;;;;5070495;28;20195;-60
2022/04/24 02:16:30;;;;;;;6.45;3.60;;;19.60;55.30;;;;;;5070855;28;20264;-60
2022/04/24 02:19:01;;;;;;;6.75;3.90;;;19.70;55.30;;;;;;5071456;28;20248;-58
2022/04/24 02:21:33;;;;;;;8.48;2.97;;;19.70;55.30;;;;;;5072135;28;20254;-59
2022/04/24 02:24:03;;;;;;;3.72;2.88;;;19.70;55.20;;;;;;5070522;28;20203;-59
2022/04/24 02:26:34;;;;;;;7.22;3.13;;;19.70;55.10;;;;;;5072544;28;20242;-59
2022/04/24 02:29:05;;;;;;;5.07;2.90;;;19.70;55.10;;;;;;5071120;28;20256;-58
2022/04/24 02:31:35;;;;;;;5.13;2.80;;;19.80;55.10;;;;;;5077589;22;20252;-63
2022/04/24 02:34:06;;;;;;;5.38;2.85;;;19.80;55.00;;;;;;5030182;28;20235;-63
2022/04/24 02:36:38;;;;;;;6.57;3.17;;;19.80;55.00;;;;;;5029843;28;20289;-63
2022/04/24 02:39:08;;;;;;;5.35;2.95;;;19.80;54.90;;;;;;5031394;28;20738;-63
2022/04/24 02:41:39;;;;;;;4.63;3.10;;;19.80;54.90;;;;;;5030989;28;20255;-63
2022/04/24 02:44:10;;;;;;;5.70;3.28;;;19.80;54.80;;;;;;5029494;28;20246;-63
2022/04/24 02:46:40;;;;;;;6.35;3.10;;;19.80;54.80;;;;;;5031372;28;20258;-63
2022/04/24 02:49:11;;;;;;;5.13;2.60;;;19.80;54.70;;;;;;5031206;28;20250;-63
2022/04/24 02:51:43;;;;;;;5.40;2.78;;;19.80;54.70;;;;;;5030838;28;20232;-62
2022/04/24 02:54:13;;;;;;;4.63;3.20;;;19.80;54.60;;;;;;5031356;28;20217;-62
2022/04/24 02:56:44;;;;;;;4.95;2.85;;;19.80;54.60;;;;;;5030796;28;20220;-62
2022/04/24 02:59:15;;;;;;;6.78;2.97;;;19.80;55.20;;;;;;5031419;28;20222;-62
2022/04/24 03:01:46;;;;;;;4.43;2.60;;;19.80;54.60;;;;;;5031403;28;20263;-62
2022/04/24 03:04:16;;;;;;;4.07;2.53;;;19.90;54.60;;;;;;5030735;28;20196;-62
2022/04/24 03:06:49;;;;;;;6.90;2.90;;;19.80;54.50;;;;;;5028197;28;20244;-62
2022/04/24 03:09:19;;;;;;;4.40;2.40;;;19.80;54.50;;;;;;5026977;28;20240;-62
2022/04/24 03:11:50;;;;;;;6.07;2.95;;;19.80;54.50;;;;;;5011552;28;20201;-62
2022/04/24 03:14:21;;;;;;;6.50;2.50;;;19.80;54.50;;;;;;5011465;28;20621;-62
2022/04/24 03:16:51;;;;;;;4.22;3.03;;;19.80;54.50;;;;;;5013710;28;20220;-62
2022/04/24 03:19:22;;;;;;;4.60;2.30;;;19.80;54.50;;;;;;5011287;28;20675;-62
2022/04/24 03:21:54;;;;;;;5.60;2.50;;;19.80;54.50;;;;;;5010577;28;20314;-62
2022/04/24 03:24:25;;;;;;;6.65;2.92;;;19.80;54.40;;;;;;5014235;28;20251;-61
2022/04/24 03:26:56;;;;;;;4.53;2.33;;;19.80;54.50;;;;;;5003291;28;20643;-61
2022/04/24 03:29:26;;;;;;;5.85;2.70;;;19.80;54.40;;;;;;5012645;28;20625;-62
2022/04/24 03:31:57;;;;;;;4.05;2.25;;;19.80;54.40;;;;;;5013895;28;20294;-62
2022/04/24 03:34:27;;;;;;;3.40;2.35;;;19.70;54.40;;;;;;5014236;28;20530;-62
2022/04/24 03:37:00;;;;;;;5.22;2.30;;;19.80;54.50;;;;;;5013240;28;20217;-62
2022/04/24 03:39:30;;;;;;;4.55;2.85;;;19.80;54.50;;;;;;5013276;28;20197;-61
2022/04/24 03:42:01;;;;;;;3.75;2.00;;;19.80;54.50;;;;;;5025652;22;20225;-56
2022/04/24 03:44:32;;;;;;;5.43;2.50;;;19.70;54.40;;;;;;5011551;28;20271;-55
2022/04/24 03:47:02;;;;;;;4.15;2.35;;;19.70;54.40;;;;;;5013415;28;20220;-54
2022/04/24 03:49:33;;;;;;;4.50;2.38;;;19.70;54.40;;;;;;5012827;28;20193;-55
2022/04/24 03:52:05;;;;;;;3.78;2.40;;;19.70;54.40;;;;;;5012928;28;20267;-55
2022/04/24 03:54:36;;;;;;;3.80;2.08;;;19.70;54.40;;;;;;5012480;28;20229;-56
2022/04/24 03:57:07;;;;;;;5.43;2.88;;;19.70;54.40;;;;;;5012476;28;20217;-56
2022/04/24 03:59:37;;;;;;;5.20;2.80;;;19.70;54.40;;;;;;5013428;28;20608;-54
2022/04/24 04:02:08;;;;;;;6.13;2.95;;;19.70;54.40;;;;;;5011996;28;20314;-55
2022/04/24 04:04:39;;;;;;;4.47;2.42;;;19.70;54.40;;;;;;5006140;28;20220;-55
2022/04/24 04:07:11;;;;;;;4.82;2.72;;;19.70;54.40;;;;;;5010111;28;20613;-54
2022/04/24 04:09:42;;;;;;;5.22;2.60;;;19.70;54.40;;;;;;5010033;28;20197;-55
2022/04/24 04:12:13;;;;;;;5.25;2.50;;;19.70;54.40;;;;;;5009581;28;20204;-54
2022/04/24 04:14:44;;;;;;;6.20;2.95;;;19.70;54.40;;;;;;5009932;28;20197;-55
2022/04/24 04:17:14;;;;;;;5.10;3.25;;;19.70;54.40;;;;;;5009094;28;20220;-55
2022/04/24 04:19:44;;;;;;;5.55;3.20;;;19.70;54.40;;;;;;5009882;28;20189;-55
2022/04/24 04:22:17;;;;;;;4.35;2.92;;;19.70;54.50;;;;;;5008115;28;20597;-56
2022/04/24 04:24:48;;;;;;;6.18;2.80;;;19.70;54.50;;;;;;5009313;28;20224;-55
2022/04/24 04:27:18;;;;;;;4.90;2.85;;;19.70;55.00;;;;;;5009886;28;20240;-55
2022/04/24 04:29:49;;;;;;;5.00;3.03;;;19.70;54.50;;;;;;5009544;28;20657;-57
2022/04/24 04:32:19;;;;;;;5.63;3.67;;;19.60;54.40;;;;;;5008879;28;20197;-54
2022/04/24 04:34:50;;;;;;;5.03;3.30;;;19.60;54.40;;;;;;5009576;28;20197;-55
2022/04/24 04:37:22;;;;;;;4.90;3.33;;;19.60;54.40;;;;;;5010307;28;20211;-56
2022/04/24 04:39:53;;;;;;;5.18;3.58;;;19.60;54.40;;;;;;5010208;28;20197;-56
2022/04/24 04:42:23;;;;;;;5.90;3.88;;;19.60;54.40;;;;;;5009493;28;20672;-52
2022/04/24 04:44:56;;;;;;;5.13;3.35;;;19.60;54.40;;;;;;5009475;28;20243;-56
2022/04/24 04:47:26;;;;;;;8.40;3.95;;;19.60;54.40;;;;;;5007734;28;20193;-57
2022/04/24 04:49:57;;;;;;;5.10;3.75;;;19.60;54.50;;;;;;5009505;28;20197;-59
2022/04/24 04:52:29;;;;;;;6.88;3.90;;;19.60;54.70;;;;;;5008282;28;20189;-58
2022/04/24 04:55:00;;;;;;;17.35;5.40;;;19.70;54.80;;;;;;5008767;28;20205;-58
2022/04/24 04:57:30;;;;;;;11.27;4.95;;;19.60;54.80;;;;;;5009101;28;20613;-57
2022/04/24 05:00:01;;;;;;;8.10;4.53;;;19.70;54.90;;;;;;5007857;28;20282;-58
2022/04/24 05:02:31;;;;;;;10.93;4.88;;;19.70;54.90;;;;;;5009026;28;20193;-57
2022/04/24 05:05:03;;;;;;;9.80;4.45;;;19.70;54.90;;;;;;5009457;28;20263;-57
2022/04/24 05:07:35;;;;;;;9.98;4.28;;;19.70;54.90;;;;;;5008643;28;20730;-54
2022/04/24 05:10:07;;;;;;;13.27;4.65;;;19.70;54.90;;;;;;5009169;28;20193;-56
2022/04/24 05:12:37;;;;;;;9.00;4.35;;;19.70;54.80;;;;;;5008669;28;20201;-57
2022/04/24 05:15:10;;;;;;;9.45;4.60;;;19.70;54.80;;;;;;5009371;28;20215;-57
2022/04/24 05:17:42;;;;;;;8.48;4.18;;;19.60;54.80;;;;;;5008352;28;20232;-57
2022/04/24 05:20:14;;;;;;;10.10;4.93;;;19.70;54.80;;;;;;5008272;28;20205;-57
2022/04/24 05:22:47;;;;;;;9.50;4.20;;;19.70;54.70;;;;;;5009215;28;20651;-57
2022/04/24 05:25:17;;;;;;;7.38;4.18;;;19.60;54.70;;;;;;5006836;28;20418;-56
2022/04/24 05:27:48;;;;;;;8.90;4.40;;;19.60;54.70;;;;;;5008429;28;20197;-56
2022/04/24 05:30:18;;;;;;;6.47;3.80;;;19.60;54.70;;;;;;5008375;28;20220;-57
2022/04/24 05:32:50;;;;;;;7.60;3.92;;;19.60;54.70;;;;;;5008554;28;20251;-55
2022/04/24 05:35:20;;;;;;;7.88;3.72;;;19.60;54.70;;;;;;5011014;28;20223;-55
2022/04/24 05:37:53;;;;;;;8.35;3.92;;;19.60;54.60;;;;;;5012646;28;20258;-55
2022/04/24 05:42:55;;;;;;;6.80;3.85;;;19.60;54.60;;;;;;5009946;28;20212;-61
2022/04/24 05:45:26;;;;;;;6.57;3.65;;;19.60;54.60;;;;;;5012461;28;20216;-60
2022/04/24 05:47:57;;;;;;;8.20;4.40;;;19.60;54.60;;;;;;5008750;28;20197;-61
2022/04/24 05:50:28;;;;;;;8.20;3.80;;;19.60;54.60;;;;;;5012220;28;20193;-60
2022/04/24 05:53:00;;;;;;;8.30;4.15;;;19.60;54.50;;;;;;5011100;28;20517;-60
2022/04/24 05:55:31;;;;;;;6.03;3.65;;;19.60;54.60;;;;;;5012751;28;20302;-60
2022/04/24 05:58:01;;;;;;;6.40;4.10;;;19.60;54.50;;;;;;5012411;28;20196;-60
2022/04/24 06:00:32;;;;;;;6.97;3.90;;;19.60;54.60;;;;;;5012236;28;20201;-61
2022/04/24 06:03:04;;;;;;;6.70;3.78;;;19.50;54.50;;;;;;5011936;28;20200;-60
2022/04/24 06:05:34;;;;;;;5.60;3.85;;;19.60;54.60;;;;;;5008843;28;20274;-60
2022/04/24 06:08:07;;;;;;;8.73;3.72;;;19.60;54.60;;;;;;5012982;28;20201;-60
2022/04/24 06:10:37;;;;;;;5.00;3.58;;;19.50;54.60;;;;;;5011985;28;20197;-60
2022/04/24 06:13:08;;;;;;;7.22;4.32;;;19.50;54.60;;;;;;5012166;28;20652;-60
2022/04/24 06:15:41;;;;;;;5.63;3.78;;;19.50;54.60;;;;;;5011317;28;21042;-60
2022/04/24 06:18:11;;;;;;;6.57;3.63;;;19.50;54.60;;;;;;5012615;28;20197;-60
2022/04/24 06:20:43;;;;;;;6.15;3.72;;;19.50;54.60;;;;;;5011564;28;20189;-60
2022/04/24 06:23:16;;;;;;;6.68;3.65;;;19.50;54.60;;;;;;5012120;28;20239;-61
2022/04/24 06:25:46;;;;;;;4.55;3.00;;;19.50;54.60;;;;;;5011797;28;20209;-60
2022/04/24 06:28:17;;;;;;;6.13;3.38;;;19.50;54.60;;;;;;5012290;28;20628;-60
2022/04/24 06:30:47;;;;;;;4.80;3.08;;;19.50;54.60;;;;;;5010759;28;20201;-61
2022/04/24 06:33:18;;;;;;;5.97;3.78;;;19.50;54.60;;;;;;5008518;28;20236;-60
2022/04/24 06:35:49;;;;;;;4.82;3.42;;;19.50;54.60;;;;;;5011352;28;20220;-60
2022/04/24 06:38:22;;;;;;;4.88;3.20;;;19.50;54.60;;;;;;5010208;28;20672;-60
2022/04/24 06:40:53;;;;;;;5.30;3.40;;;19.50;54.60;;;;;;5012157;28;20197;-60
2022/04/24 06:43:23;;;;;;;5.32;2.88;;;19.50;54.60;;;;;;5011911;28;20215;-61
2022/04/24 06:45:54;;;;;;;5.78;3.42;;;19.40;54.50;;;;;;5010784;28;20213;-60
2022/04/24 06:48:24;;;;;;;4.55;3.15;;;19.40;54.60;;;;;;5011638;28;20253;-60
2022/04/24 06:50:55;;;;;;;4.93;3.05;;;19.40;54.60;;;;;;5012239;28;20229;-60
2022/04/24 06:53:28;;;;;;;6.43;3.47;;;19.40;54.60;;;;;;5008417;28;20688;-60
2022/04/24 06:55:59;;;;;;;5.47;3.20;;;19.40;54.60;;;;;;5010366;28;20213;-60
2022/04/24 06:58:29;;;;;;;4.75;2.85;;;19.40;54.60;;;;;;5009651;28;20197;-60
2022/04/24 07:01:00;;;;;;;4.78;3.20;;;19.40;54.70;;;;;;5009800;28;20271;-61
2022/04/24 07:03:32;;;;;;;4.90;2.97;;;19.40;54.70;;;;;;5009565;28;20189;-62
2022/04/24 07:06:03;;;;;;;4.68;3.17;;;19.40;54.70;;;;;;5008641;28;20247;-60
2022/04/24 07:08:35;;;;;;;4.38;2.75;;;19.40;54.70;;;;;;5009766;28;20255;-61
2022/04/24 07:11:06;;;;;;;5.68;3.40;;;19.40;54.80;;;;;;5009576;28;20229;-61
2022/04/24 07:13:36;;;;;;;5.25;2.97;;;19.40;54.80;;;;;;5008998;28;20247;-61
2022/04/24 07:16:07;;;;;;;5.70;3.15;;;19.40;54.80;;;;;;5007294;28;20719;-60
2022/04/24 07:18:39;;;;;;;6.35;3.40;;;19.40;54.70;;;;;;5010688;28;20201;-60
2022/04/24 07:21:10;;;;;;;4.22;3.05;;;19.40;55.30;;;;;;5010353;28;20264;-61
2022/04/24 07:23:42;;;;;;;4.90;2.65;;;19.40;54.70;;;;;;5009473;28;20531;-61
2022/04/24 07:26:13;;;;;;;5.25;3.42;;;19.30;54.70;;;;;;5008559;28;20240;-62
2022/04/24 07:28:43;;;;;;;5.00;3.20;;;19.30;54.70;;;;;;5010562;28;20228;-60
2022/04/24 07:31:18;;;;;;;3.35;2.75;;;19.30;54.70;;;;;;5010304;28;20235;-61
2022/04/24 07:33:48;;;;;;;4.70;3.10;;;19.30;54.70;;;;;;5009820;28;20644;-61
2022/04/24 07:36:19;;;;;;;4.55;2.85;;;19.30;54.70;;;;;;5008530;28;20351;-61
2022/04/24 07:38:52;;;;;;;5.82;3.33;;;19.30;54.70;;;;;;5008082;28;20256;-61
2022/04/24 07:41:22;;;;;;;4.57;3.00;;;19.30;54.70;;;;;;5008667;28;20231;-61
2022/04/24 07:43:53;;;;;;;5.60;3.42;;;19.30;54.70;;;;;;5008797;28;20672;-61
2022/04/24 07:46:23;;;;;;;5.00;2.75;;;19.30;54.80;;;;;;5009127;28;20248;-61
2022/04/24 07:48:54;;;;;;;3.85;2.78;;;19.20;54.70;;;;;;5009495;28;20243;-62
2022/04/24 07:51:24;;;;;;;3.85;2.75;;;19.20;54.80;;;;;;5008750;28;20228;-61
2022/04/24 07:53:57;;;;;;;5.07;2.80;;;19.20;54.80;;;;;;5010052;28;20286;-61
2022/04/24 07:56:27;;;;;;;4.63;2.75;;;19.20;54.80;;;;;;5006068;28;20217;-61
2022/04/24 07:58:58;;;;;;;5.35;3.03;;;19.20;54.80;;;;;;4993707;28;20288;-61
2022/04/24 08:01:28;;;;;;;3.97;2.80;;;19.20;54.80;;;;;;4993626;28;20323;-61
2022/04/24 08:03:59;;;;;;;3.67;2.53;;;19.20;54.80;;;;;;4993002;28;20614;-60
2022/04/24 08:06:29;;;;;;;4.18;2.63;;;19.20;54.80;;;;;;4992642;28;20217;-63
2022/04/24 08:09:01;;;;;;;4.20;2.60;;;19.20;54.80;;;;;;4993030;28;20252;-61
2022/04/24 08:11:32;;;;;;;4.60;3.00;;;19.20;54.90;;;;;;4999772;28;20216;-61
2022/04/24 08:14:02;;;;;;;4.93;3.17;;;19.20;54.80;;;;;;5005654;28;20688;-60
2022/04/24 08:16:33;;;;;;;3.58;2.78;;;19.20;54.90;;;;;;5005519;28;20643;-61
2022/04/24 08:19:03;;;;;;;3.72;2.45;;;19.20;54.90;;;;;;5008420;28;20743;-61
2022/04/24 08:21:34;;;;;;;3.15;2.40;;;19.20;54.90;;;;;;5005174;28;20221;-61
2022/04/24 08:24:07;;;;;;;4.57;3.10;;;19.20;54.90;;;;;;5003788;28;20228;-60
2022/04/24 08:26:37;;;;;;;4.53;2.53;;;19.20;54.90;;;;;;5007788;28;20216;-60
2022/04/24 08:29:08;;;;;;;3.45;2.70;;;19.20;54.90;;;;;;5008104;28;20232;-60
2022/04/24 08:31:38;;;;;;;3.90;2.80;;;19.10;54.90;;;;;;5006241;28;20229;-62
2022/04/24 08:34:09;;;;;;;4.22;2.63;;;19.10;54.90;;;;;;5007150;28;20233;-60
2022/04/24 08:36:39;;;;;;;4.88;2.75;;;19.10;55.00;;;;;;5008705;28;20217;-60
2022/04/24 08:39:11;;;;;;;4.10;2.60;;;19.10;55.00;;;;;;5008622;28;20200;-60
2022/04/24 08:41:43;;;;;;;4.47;2.70;;;19.10;55.00;;;;;;5035582;22;20231;-54
2022/04/24 08:44:14;;;;;;;5.05;2.78;;;19.10;55.00;;;;;;5037662;28;20192;-57
2022/04/24 08:46:45;;;;;;;3.38;2.53;;;19.10;55.00;;;;;;5027261;28;20656;-53
2022/04/24 08:49:17;;;;;;;2.97;2.17;;;19.10;55.10;;;;;;5022516;28;20196;-56
2022/04/24 08:51:47;;;;;;;2.88;2.25;;;19.10;55.10;;;;;;5023352;28;20208;-54
2022/04/24 08:54:21;;;;;;;4.47;3.00;;;19.10;55.10;;;;;;5027706;28;20188;-55
2022/04/24 08:56:56;;;;;;;3.42;2.50;;;19.10;55.10;;;;;;5024104;28;20235;-55
2022/04/24 08:59:27;;;;;;;4.45;2.70;;;19.10;55.10;;;;;;5024455;28;20249;-55
2022/04/24 09:02:01;;;;;;;3.00;2.33;;;19.10;55.10;;;;;;5023402;28;20256;-56
2022/04/24 09:04:35;;;;;;;3.78;2.47;;;19.10;55.10;;;;;;5023716;28;20196;-56
2022/04/24 09:07:06;;;;;;;4.00;2.67;;;19.10;55.10;;;;;;5027725;28;20235;-51
2022/04/24 09:09:44;;;;;;;2.95;2.22;;;19.00;55.00;;;;;;5025478;28;20683;-57
2022/04/24 09:12:17;;;;;;;2.90;2.08;;;19.00;55.10;;;;;;5024458;28;20231;-55
2022/04/24 09:14:52;;;;;;;3.60;2.40;;;19.00;55.10;;;;;;5021887;28;20253;-53
2022/04/24 09:17:24;;;;;;;3.33;2.30;;;19.00;55.10;;;;;;5024103;28;20219;-55
2022/04/24 09:19:55;;;;;;;3.30;2.42;;;19.00;55.10;;;;;;5025628;28;20224;-55
2022/04/24 09:22:26;;;;;;;3.53;2.53;;;19.00;55.70;;;;;;5026261;28;20215;-56
2022/04/24 09:25:00;;;;;;;3.88;2.30;;;19.00;55.10;;;;;;5023671;28;20232;-54
2022/04/24 09:27:32;;;;;;;3.92;2.58;;;19.00;55.20;;;;;;5023709;28;20196;-56
2022/04/24 09:30:04;;;;;;;4.28;2.60;;;19.00;55.20;;;;;;5024332;28;20196;-55
2022/04/24 09:32:39;;;;;;;3.97;2.40;;;19.00;55.20;;;;;;5023418;28;20200;-54
2022/04/24 09:35:10;;;;;;;2.22;1.80;;;19.00;55.20;;;;;;5027519;28;20227;-55
2022/04/24 09:37:41;;;;;;;2.60;2.08;;;19.00;55.20;;;;;;5024622;28;20220;-55
2022/04/24 09:40:14;;;;;;;3.05;2.38;;;19.00;55.20;;;;;;5023610;28;20220;-56
2022/04/24 10:42:30;;;;;;;4.30;2.50;;;19.00;58.20;;;;;;5390303;22;20239;-57
2022/04/24 10:45:09;;;;;;;5.97;2.72;;;19.00;58.10;;;;;;5030124;28;20207;-57
2022/04/24 10:47:47;;;;;;;4.40;2.67;;;19.00;58.00;;;;;;5028567;28;20188;-57
2022/04/24 10:50:19;;;;;;;7.90;2.65;;;19.00;58.10;;;;;;5030338;28;20200;-57
2022/04/24 10:52:53;;;;;;;4.15;2.80;;;19.00;57.90;;;;;;5027850;28;20215;-58
2022/04/24 10:55:30;;;;;;;5.05;2.95;;;19.00;57.90;;;;;;5030605;28;20239;-56
2022/04/24 10:58:03;;;;;;;3.65;2.60;;;19.00;57.90;;;;;;5030269;28;20192;-57
2022/04/24 11:00:37;;;;;;;5.78;3.88;;;19.00;58.40;;;;;;5029892;28;20199;-55
2022/04/24 11:03:15;;;;;;;6.07;3.35;;;19.00;58.00;;;;;;5029288;28;20220;-56
2022/04/24 11:05:47;;;;;;;6.63;3.35;;;19.00;57.90;;;;;;5028108;28;20580;-56
2022/04/24 11:08:21;;;;;;;5.20;2.97;;;19.00;57.80;;;;;;5027304;28;20272;-58
2022/04/24 11:10:52;;;;;;;5.28;2.95;;;19.00;57.80;;;;;;5028396;28;20196;-57
2022/04/24 11:13:25;;;;;;;3.65;2.65;;;19.00;57.70;;;;;;5029941;28;20215;-56
2022/04/24 11:15:55;;;;;;;4.97;2.88;;;19.00;58.00;;;;;;5029784;28;20224;-59
2022/04/24 11:18:26;;;;;;;7.70;4.03;;;19.00;57.50;;;;;;5029966;28;20197;-58
2022/04/24 11:21:01;;;;;;;6.35;3.42;;;19.00;57.50;;;;;;5029420;28;20571;-59
2022/04/24 11:23:34;;;;;;;5.85;3.40;;;19.00;57.90;;;;;;5029183;28;20251;-58
2022/04/24 11:26:05;;;;;;;5.13;3.33;;;19.00;57.90;;;;;;4993372;28;20268;-57
2022/04/24 11:28:42;;;;;;;4.72;3.22;;;19.00;57.90;;;;;;4994667;28;20201;-57
2022/04/24 11:31:19;;;;;;;7.43;3.35;;;19.00;57.70;;;;;;4994632;28;20197;-58
2022/04/24 11:33:57;;;;;;;5.20;3.40;;;18.90;57.60;;;;;;4993188;28;20236;-59
2022/04/24 11:36:32;;;;;;;4.95;3.20;;;18.90;57.50;;;;;;4992741;28;20225;-58
2022/04/24 11:39:04;;;;;;;4.90;3.20;;;18.90;57.40;;;;;;4993508;28;20267;-57
2022/04/24 11:41:35;;;;;;;6.40;3.65;;;18.90;57.40;;;;;;5012760;28;20696;-58
2022/04/24 11:50:13;;;;;;;5.53;2.92;;;18.90;57.30;;;;;;5011690;28;20221;-58
2022/04/24 11:52:39;;;;;;;4.13;2.92;;;18.90;57.20;;;;;;5013498;28;20699;-57
2022/04/24 11:55:12;;;;;;;6.55;3.33;;;18.80;57.20;;;;;;5011072;28;20189;-57
2022/04/24 11:57:43;;;;;;;5.35;3.20;;;18.80;57.10;;;;;;5013159;28;20205;-58
2022/04/24 12:00:18;;;;;;;6.03;3.35;;;18.80;57.10;;;;;;5012299;28;20193;-59
2022/04/24 12:02:49;;;;;;;4.72;2.75;;;18.80;57.10;;;;;;5011438;28;20228;-58
2022/04/24 12:05:19;;;;;;;4.47;2.90;;;18.80;57.10;;;;;;5010571;28;20217;-55
2022/04/24 12:07:57;;;;;;;5.35;3.00;;;18.90;57.10;;;;;;5010276;28;20197;-53
2022/04/24 12:10:29;;;;;;;3.70;2.60;;;18.80;57.00;;;;;;5009996;28;20657;-58
2022/04/24 12:13:06;;;;;;;3.72;3.00;;;18.80;56.90;;;;;;5010824;28;20266;-58
2022/04/24 12:15:39;;;;;;;4.97;2.50;;;18.80;56.90;;;;;;5010989;28;20217;-58
2022/04/24 12:18:09;;;;;;;3.90;2.70;;;18.80;56.90;;;;;;5009723;28;20193;-58
2022/04/24 12:20:42;;;;;;;4.55;2.75;;;18.80;56.80;;;;;;5010239;28;20185;-57
2022/04/24 12:23:13;;;;;;;3.72;2.60;;;18.80;56.80;;;;;;5007623;28;20316;-57
2022/04/24 12:25:50;;;;;;;2.92;2.50;;;18.80;56.80;;;;;;5009814;28;20750;-58
2022/04/24 12:28:35;;;;;;;3.15;2.42;;;18.80;56.80;;;;;;5007060;28;20407;-58
2022/04/24 12:31:08;;;;;;;3.92;2.50;;;18.70;56.70;;;;;;5012912;28;20642;-58
2022/04/24 12:33:49;;;;;;;4.07;3.00;;;18.70;56.70;;;;;;5017644;28;20714;-58
2022/04/24 12:36:20;;;;;;;3.85;2.40;;;18.70;56.70;;;;;;5018596;28;20212;-57
2022/04/24 12:38:58;;;;;;;4.40;2.78;;;18.70;56.70;;;;;;5015680;28;20207;-58
2022/04/24 12:41:30;;;;;;;5.05;2.78;;;18.70;56.70;;;;;;5010740;28;20660;-57
2022/04/24 12:44:02;;;;;;;2.80;2.30;;;18.70;56.70;;;;;;5016172;28;20220;-57
2022/04/24 12:46:36;;;;;;;3.88;2.60;;;18.70;56.70;;;;;;5015737;28;20236;-58
2022/04/24 12:49:07;;;;;;;3.53;2.78;;;18.70;56.70;;;;;;5016330;28;20221;-58
2022/04/24 12:51:38;;;;;;;3.47;2.10;;;18.70;56.70;;;;;;5018866;28;20720;-58
2022/04/24 12:54:08;;;;;;;3.33;2.55;;;18.70;56.70;;;;;;5009846;28;20239;-58
2022/04/24 12:56:41;;;;;;;3.10;2.67;;;18.70;56.70;;;;;;5013194;28;20221;-59
2022/04/24 12:59:12;;;;;;;3.17;2.40;;;18.60;56.60;;;;;;5018150;28;21695;-58
2022/04/24 13:01:45;;;;;;;3.38;2.45;;;18.60;56.60;;;;;;5016082;28;20270;-58
2022/04/24 13:04:16;;;;;;;2.95;2.35;;;18.60;56.60;;;;;;5019897;28;20228;-57
2022/04/24 13:06:47;;;;;;;3.30;2.38;;;18.60;56.60;;;;;;5019289;28;20215;-59
2022/04/24 13:09:17;;;;;;;2.72;2.35;;;18.70;56.60;;;;;;5020850;28;20184;-58
2022/04/24 13:11:48;;;;;;;3.40;2.10;;;18.60;56.60;;;;;;5009204;28;20240;-59
2022/04/24 13:14:18;;;;;;;2.47;2.28;;;18.60;56.60;;;;;;5011874;28;20251;-59
2022/04/24 13:19:37;;;;;;;4.22;2.70;;;18.60;56.50;;;;;;5018101;28;20718;-58
2022/04/24 13:22:08;;;;;;;2.58;2.20;;;18.60;56.50;;;;;;5015580;28;20185;-59
2022/04/24 13:24:39;;;;;;;3.33;2.50;;;18.60;56.60;;;;;;5012823;28;20213;-58
2022/04/24 13:27:10;;;;;;;3.25;2.30;;;18.60;56.60;;;;;;5016181;28;20587;-58
2022/04/24 13:29:40;;;;;;;3.65;2.30;;;18.60;56.50;;;;;;5018359;28;20188;-57
2022/04/24 13:32:13;;;;;;;2.88;2.30;;;18.50;56.50;;;;;;5016164;28;20520;-58
2022/04/24 13:34:44;;;;;;;4.30;2.25;;;18.50;56.50;;;;;;5017825;28;20220;-58
2022/04/24 13:40:14;;;;;;;2.80;2.20;;;18.50;56.50;;;;;;4978588;28;20222;-57
2022/04/24 13:42:45;;;;;;;2.15;1.92;;;18.50;56.50;;;;;;5011591;28;20228;-58
2022/04/24 13:45:15;;;;;;;2.35;2.15;;;18.50;56.40;;;;;;5016055;28;20269;-58
2022/04/24 13:47:47;;;;;;;2.60;1.92;;;18.50;56.40;;;;;;5020112;28;20595;-58
2022/04/24 13:50:18;;;;;;;3.20;2.15;;;18.50;56.50;;;;;;5019483;28;20261;-57
2022/04/24 13:52:49;;;;;;;2.92;1.90;;;18.50;56.40;;;;;;5008755;28;20193;-57
2022/04/24 13:55:19;;;;;;;3.22;2.20;;;18.50;56.40;;;;;;5010514;28;20213;-58
2022/04/24 13:57:50;;;;;;;2.83;2.08;;;18.50;56.40;;;;;;5013209;28;20727;-56
2022/04/24 14:00:21;;;;;;;3.00;2.08;;;18.50;56.40;;;;;;5013255;28;20251;-58
2022/04/24 14:02:54;;;;;;;3.08;1.88;;;18.50;56.40;;;;;;5013157;28;20197;-58
2022/04/24 14:05:26;;;;;;;3.08;1.88;;;18.40;56.40;;;;;;5012352;28;20224;-58
2022/04/24 14:07:56;;;;;;;2.60;1.98;;;18.40;56.40;;;;;;5002939;28;20212;-58
2022/04/24 14:10:27;;;;;;;2.67;1.95;;;18.40;56.40;;;;;;5012880;28;20267;-58
2022/04/24 14:12:57;;;;;;;2.58;2.15;;;18.40;56.40;;;;;;5013138;28;20768;-57
2022/04/24 14:15:28;;;;;;;2.58;2.00;;;18.40;56.40;;;;;;5013341;28;20252;-58
2022/04/24 14:18:01;;;;;;;2.20;1.80;;;18.40;56.40;;;;;;5012086;28;20189;-57
2022/04/24 14:20:31;;;;;;;2.15;1.67;;;18.40;57.00;;;;;;5011707;28;20259;-55
2022/04/24 14:23:03;;;;;;;2.33;1.83;;;18.40;56.40;;;;;;5011565;28;20232;-57